Spellbound — WDF2806 — position and weather

sailwx.info

Track history (hours):
 
Tides and Currents Weather Stations Pressure Air Temp Water Temp Dewpoint Dewpoint Depression Visibility Wind Speed Wind Dir Waves Ship Positions

Spellbound

Owner: reckling mrs, kathy r, cheyenne, WY. More information available from US FCC via Universal Licensing System and Coast Guard Vessel Documentation Center.

Last reported at 2014-Oct-09 14:19 UTC. Time now 2014-Oct-23 04:42 UTC.
Position N 40°28' W 072°01'.
Warning: this ship's position is 13 days out of date.

Type: Pleasure craft. MMSI: 367432110.

Date/timePositionNaut miles runAvg speedWind from/ knotsBaromVisibWave heightAir tempDewpointWater temp
2014-Oct-09 14:19N 40°28' W 072°01'6 7.8
2014-Oct-09 13:33N 40°33' W 071°56'7 6.5
2014-Oct-09 12:33N 40°38' W 071°51'6 6.4
2014-Oct-09 11:33N 40°43' W 071°45'6 6.1
2014-Oct-09 10:33N 40°48' W 071°41'5 5.3
2014-Oct-09 09:33N 40°52' W 071°37'2 2.4
2014-Oct-09 08:33N 40°54' W 071°35'2 1.8
2014-Oct-09 07:33N 40°55' W 071°34'3 3.2
2014-Oct-09 06:33N 40°58' W 071°32'5 5.0
2014-Oct-09 05:33N 41°03' W 071°29'5 5.2
2014-Oct-09 04:33N 41°08' W 071°27'5 4.7
2014-Oct-09 03:33N 41°12' W 071°26'5 4.6
2014-Oct-09 02:33N 41°17' W 071°25'4 4.2
2014-Oct-09 01:33N 41°21' W 071°24'4 3.9
2014-Oct-09 00:33N 41°25' W 071°23'4 3.6
2014-Oct-08 23:24N 41°29' W 071°21'1 0.1
2014-Oct-08 09:30N 41°29' W 071°20'0 0.0
2014-Oct-06 13:16N 41°29' W 071°20'0 0.0
2014-Oct-06 12:31N 41°29' W 071°20'  
2014-Oct-04 02:24N 41°27' W 071°22'101 2.9
2014-Oct-02 15:34N 43°04' W 070°42'1 0.9
2014-Oct-02 14:27N 43°05' W 070°42'0 0.0
2014-Oct-02 13:30N 43°05' W 070°42'0 0.0
2014-Oct-02 04:31N 43°05' W 070°42'0 0.0
2014-Oct-02 03:19N 43°05' W 070°42'0 0.0
2014-Oct-02 02:31N 43°05' W 070°42'0 0.0
2014-Oct-02 01:31N 43°05' W 070°42'0 0.0
2014-Oct-02 00:31N 43°05' W 070°42'0 0.0
2014-Oct-01 23:31N 43°05' W 070°42'0 0.0
2014-Oct-01 22:31N 43°05' W 070°42'46 5.7
2014-Oct-01 14:33N 43°38' W 069°59'7 6.6
2014-Oct-01 13:33N 43°44' W 069°57'  
Track history (hours):
 
Tides and Currents Weather Stations Pressure Air Temp Water Temp Dewpoint Dewpoint Depression Visibility Wind Speed Wind Dir Waves Ship Positions

Spellbound

Owner: reckling mrs, kathy r, cheyenne, WY. More information available from US FCC via Universal Licensing System and Coast Guard Vessel Documentation Center.

Last reported at 2014-Oct-09 14:19 UTC. Time now 2014-Oct-23 04:42 UTC.
Position N 40°28' W 072°01'.
Warning: this ship's position is 13 days out of date.

Type: Pleasure craft. MMSI: 367432110.

Date/timePositionNaut miles runAvg speedWind from/ knotsBaromVisibWave heightAir tempDewpointWater temp
2014-Oct-09 14:19N 40°28' W 072°01'6 7.8
2014-Oct-09 13:33N 40°33' W 071°56'7 6.5
2014-Oct-09 12:33N 40°38' W 071°51'6 6.4
2014-Oct-09 11:33N 40°43' W 071°45'6 6.1
2014-Oct-09 10:33N 40°48' W 071°41'5 5.3
2014-Oct-09 09:33N 40°52' W 071°37'2 2.4
2014-Oct-09 08:33N 40°54' W 071°35'2 1.8
2014-Oct-09 07:33N 40°55' W 071°34'3 3.2
2014-Oct-09 06:33N 40°58' W 071°32'5 5.0
2014-Oct-09 05:33N 41°03' W 071°29'5 5.2
2014-Oct-09 04:33N 41°08' W 071°27'5 4.7
2014-Oct-09 03:33N 41°12' W 071°26'5 4.6
2014-Oct-09 02:33N 41°17' W 071°25'4 4.2
2014-Oct-09 01:33N 41°21' W 071°24'4 3.9
2014-Oct-09 00:33N 41°25' W 071°23'4 3.6
2014-Oct-08 23:24N 41°29' W 071°21'1 0.1
2014-Oct-08 09:30N 41°29' W 071°20'0 0.0
2014-Oct-06 13:16N 41°29' W 071°20'0 0.0
2014-Oct-06 12:31N 41°29' W 071°20'  
2014-Oct-04 02:24N 41°27' W 071°22'101 2.9
2014-Oct-02 15:34N 43°04' W 070°42'1 0.9
2014-Oct-02 14:27N 43°05' W 070°42'0 0.0
2014-Oct-02 13:30N 43°05' W 070°42'0 0.0
2014-Oct-02 04:31N 43°05' W 070°42'0 0.0
2014-Oct-02 03:19N 43°05' W 070°42'0 0.0
2014-Oct-02 02:31N 43°05' W 070°42'0 0.0
2014-Oct-02 01:31N 43°05' W 070°42'0 0.0
2014-Oct-02 00:31N 43°05' W 070°42'0 0.0
2014-Oct-01 23:31N 43°05' W 070°42'0 0.0
2014-Oct-01 22:31N 43°05' W 070°42'46 5.7
2014-Oct-01 14:33N 43°38' W 069°59'7 6.6
2014-Oct-01 13:33N 43°44' W 069°57'  

Dump ship's entire track history